Time;durP1;ratioP1;P1;durP2;ratioP2;P2;SDS_P1;SDS_P2;PMS_P1;PMS_P2;Temp;Humidity;BMP_temperature;BMP_pressure;BME280_temperature;BME280_humidity;BME280_pressure;Samples;Min_cycle;Max_cycle;Signal;HPM_P1;HPM_P2
2023/12/27 00:01:41;;;;;;;5.33;3.77;;;;;;;11.56;57.51;99695.44;5034163;28;20195;-66
2023/12/27 00:04:07;;;;;;;3.27;2.97;;;;;;;11.67;56.97;99702.09;5034132;28;20203;-66
2023/12/27 00:06:34;;;;;;;6.43;4.17;;;;;;;11.77;57.10;99706.03;5034222;28;20199;-66
2023/12/27 00:09:02;;;;;;;4.97;3.87;;;;;;;11.70;57.18;99707.84;5034161;28;20266;-66
2023/12/27 00:11:29;;;;;;;4.17;3.93;;;;;;;11.76;57.00;99707.03;5033991;28;20224;-66
2023/12/27 00:13:56;;;;;;;4.73;3.80;;;;;;;11.77;57.08;99707.88;5034260;28;20200;-66
2023/12/27 00:16:24;;;;;;;5.77;3.73;;;;;;;11.61;57.46;99713.50;5033867;28;20253;-66
2023/12/27 00:18:51;;;;;;;5.07;3.27;;;;;;;11.59;57.57;99716.34;5033854;28;20249;-66
2023/12/27 00:21:17;;;;;;;7.73;3.97;;;;;;;11.65;57.21;99712.09;5033514;28;20673;-65
2023/12/27 00:23:44;;;;;;;4.80;3.67;;;;;;;11.59;57.45;99708.34;5034007;28;20274;-65
2023/12/27 00:26:11;;;;;;;6.53;3.67;;;;;;;11.60;57.33;99714.50;5032526;28;20198;-65
2023/12/27 00:28:38;;;;;;;4.20;3.33;;;;;;;11.57;57.54;99722.88;5033433;28;20365;-65
2023/12/27 00:31:04;;;;;;;6.13;3.73;;;;;;;11.61;56.83;99722.31;5033117;28;20191;-64
2023/12/27 00:33:33;;;;;;;3.83;3.53;;;;;;;11.73;56.31;99731.41;5033040;28;20280;-64
2023/12/27 00:35:59;;;;;;;5.13;3.43;;;;;;;11.75;56.18;99737.31;5032968;28;20214;-65
2023/12/27 00:38:26;;;;;;;4.37;3.10;;;;;;;11.76;55.97;99746.94;5033520;28;20208;-65
2023/12/27 00:40:53;;;;;;;3.67;3.27;;;;;;;11.80;55.85;99750.84;5033357;28;20246;-64
2023/12/27 00:43:19;;;;;;;3.83;3.43;;;;;;;11.85;55.95;99751.13;5033091;28;20685;-64
2023/12/27 00:45:46;;;;;;;4.83;3.20;;;;;;;11.87;56.00;99745.56;5033308;28;20265;-64
2023/12/27 00:48:13;;;;;;;5.57;3.47;;;;;;;11.97;55.48;99757.47;5032889;28;20210;-64
2023/12/27 00:50:41;;;;;;;3.40;3.20;;;;;;;11.82;56.05;99754.16;5033215;28;20257;-65
2023/12/27 00:53:08;;;;;;;7.03;3.50;;;;;;;11.69;56.58;99754.09;5033233;28;20289;-65
2023/12/27 00:55:34;;;;;;;5.20;3.63;;;;;;;11.73;56.71;99755.34;5033307;28;20634;-65
2023/12/27 00:58:01;;;;;;;4.47;3.53;;;;;;;11.75;56.83;99768.44;5033221;28;20200;-64
2023/12/27 01:00:28;;;;;;;6.97;3.50;;;;;;;11.70;57.09;99745.09;5032639;28;20200;-65
2023/12/27 01:02:55;;;;;;;5.33;3.30;;;;;;;11.68;57.26;99762.28;5032961;28;20748;-65
2023/12/27 01:05:21;;;;;;;3.73;3.43;;;;;;;11.66;57.68;99765.13;5032657;28;20197;-65
2023/12/27 01:07:49;;;;;;;4.20;3.77;;;;;;;11.63;57.87;99764.72;5032660;28;20734;-65
2023/12/27 01:10:16;;;;;;;4.50;3.40;;;;;;;11.46;58.54;99766.81;5032976;28;20196;-64
2023/12/27 01:12:43;;;;;;;3.80;3.50;;;;;;;11.41;58.93;99755.09;5032797;28;20297;-64
2023/12/27 01:15:10;;;;;;;5.67;3.03;;;;;;;11.49;58.73;99763.75;5032429;28;20253;-64
2023/12/27 01:17:37;;;;;;;4.43;3.00;;;;;;;11.53;58.50;99758.88;5032887;28;20230;-64
2023/12/27 01:20:04;;;;;;;3.13;2.80;;;;;;;11.48;58.74;99763.97;5032330;28;20251;-64
2023/12/27 01:22:31;;;;;;;3.33;3.10;;;;;;;11.50;58.68;99760.09;5032731;28;20280;-65
2023/12/27 01:24:59;;;;;;;2.80;2.60;;;;;;;11.44;58.59;99760.88;5032277;28;20723;-66
2023/12/27 01:27:26;;;;;;;3.10;2.90;;;;;;;11.43;58.86;99759.22;5030982;28;20198;-65
2023/12/27 01:29:53;;;;;;;3.57;3.27;;;;;;;11.49;58.64;99753.13;5032875;28;20232;-64
2023/12/27 01:32:20;;;;;;;7.67;3.27;;;;;;;11.58;58.25;99762.59;5032648;28;20224;-65
2023/12/27 01:34:46;;;;;;;3.17;2.83;;;;;;;11.52;58.16;99750.09;5032124;28;20261;-65
2023/12/27 01:37:13;;;;;;;5.50;3.07;;;;;;;11.48;58.46;99754.16;5032180;28;20214;-65
2023/12/27 01:39:40;;;;;;;3.40;3.10;;;;;;;11.48;58.24;99745.34;5032486;28;20195;-65
2023/12/27 01:42:08;;;;;;;3.33;3.03;;;;;;;11.49;58.30;99755.78;5032042;28;20249;-65
2023/12/27 01:44:35;;;;;;;4.07;3.23;;;;;;;11.60;57.75;99760.56;5032025;28;20195;-65
2023/12/27 01:47:01;;;;;;;2.57;2.43;;;;;;;11.61;58.03;99756.91;5032194;28;20199;-65
2023/12/27 01:49:28;;;;;;;4.53;3.00;;;;;;;11.65;58.93;99763.50;5032200;28;20207;-65
2023/12/27 01:51:55;;;;;;;3.37;2.93;;;;;;;11.68;58.38;99771.06;5032051;28;20277;-66
2023/12/27 01:54:22;;;;;;;3.17;2.90;;;;;;;11.73;58.28;99760.66;5031808;28;20670;-65
2023/12/27 01:56:51;;;;;;;3.20;2.73;;;;;;;11.70;58.58;99766.38;5031714;28;20268;-65
2023/12/27 01:59:19;;;;;;;3.97;3.10;;;;;;;11.85;58.79;99759.09;5032026;28;20250;-66
2023/12/27 02:01:46;;;;;;;4.70;3.17;;;;;;;11.90;58.59;99754.00;5031644;28;20667;-66
2023/12/27 02:04:13;;;;;;;5.10;3.50;;;;;;;12.08;58.20;99759.59;5032040;28;20203;-66
2023/12/27 02:06:40;;;;;;;3.20;2.90;;;;;;;12.20;58.04;99758.00;5031896;28;20255;-65
2023/12/27 02:09:07;;;;;;;5.40;3.13;;;;;;;12.27;57.43;99761.50;5031963;28;20251;-66
2023/12/27 02:11:34;;;;;;;3.47;3.23;;;;;;;12.36;57.24;99762.97;5031536;28;20208;-66
2023/12/27 02:14:00;;;;;;;6.03;2.93;;;;;;;12.42;57.22;99767.47;5031517;28;20198;-66
2023/12/27 02:16:28;;;;;;;3.43;3.13;;;;;;;12.42;57.21;99772.81;5031747;28;20263;-66
2023/12/27 02:18:56;;;;;;;5.13;3.10;;;;;;;12.46;56.90;99763.38;5031519;28;20270;-66
2023/12/27 02:21:24;;;;;;;4.13;2.83;;;;;;;12.56;56.32;99758.50;5031588;28;20200;-66
2023/12/27 02:23:55;;;;;;;3.20;2.90;;;;;;;12.64;56.08;99766.31;5031399;28;20742;-66
2023/12/27 02:26:23;;;;;;;3.07;2.87;;;;;;;12.63;56.41;99770.00;5031677;28;20719;-66
2023/12/27 02:28:50;;;;;;;4.63;2.70;;;;;;;12.65;56.45;99773.28;5031386;28;20232;-66
2023/12/27 02:31:17;;;;;;;4.07;3.07;;;;;;;12.68;56.67;99777.38;5016471;28;20656;-66
2023/12/27 02:33:44;;;;;;;3.00;2.80;;;;;;;12.73;56.25;99786.41;5009785;28;20221;-66
2023/12/27 02:36:11;;;;;;;5.20;3.47;;;;;;;12.79;55.84;99784.78;5010403;28;20240;-66
2023/12/27 02:38:38;;;;;;;3.30;3.00;;;;;;;12.80;55.85;99789.91;5030036;28;20276;-66
2023/12/27 02:41:04;;;;;;;3.30;3.00;;;;;;;12.87;56.00;99798.72;5033663;28;20282;-66
2023/12/27 02:43:33;;;;;;;5.17;3.33;;;;;;;12.94;55.43;99801.44;5034719;28;20193;-66
2023/12/27 02:46:00;;;;;;;6.90;3.70;;;;;;;12.88;55.43;99805.72;5035206;28;20225;-66
2023/12/27 02:48:27;;;;;;;4.03;3.20;;;;;;;12.69;56.17;99798.50;5035608;28;20275;-66
2023/12/27 02:50:53;;;;;;;4.53;3.03;;;;;;;12.62;56.24;99805.66;5034979;28;20197;-66
2023/12/27 02:53:20;;;;;;;4.10;3.30;;;;;;;12.57;56.63;99805.44;5035444;28;20820;-66
2023/12/27 02:55:47;;;;;;;4.77;3.10;;;;;;;12.43;56.68;99813.59;5035116;28;20197;-66
2023/12/27 02:58:14;;;;;;;3.77;2.90;;;;;;;12.39;56.99;99818.53;5035032;28;20281;-66
2023/12/27 03:00:42;;;;;;;2.90;2.70;;;;;;;12.27;57.05;99812.13;5034880;28;20630;-66
2023/12/27 03:03:10;;;;;;;3.43;3.13;;;;;;;12.22;57.01;99817.22;5034960;28;20668;-66
2023/12/27 03:05:37;;;;;;;3.67;2.90;;;;;;;12.25;56.78;99818.66;5034976;28;20194;-66
2023/12/27 03:08:04;;;;;;;4.87;3.40;;;;;;;12.21;57.13;99818.22;5034817;28;20193;-66
2023/12/27 03:10:31;;;;;;;4.07;3.43;;;;;;;12.18;57.07;99836.44;5034823;28;20670;-66
2023/12/27 03:12:57;;;;;;;4.33;3.93;;;;;;;12.17;56.80;99822.31;5034941;28;20302;-66
2023/12/27 03:15:24;;;;;;;4.13;3.77;;;;;;;12.18;56.57;99837.28;5035026;28;20250;-66
2023/12/27 03:17:52;;;;;;;7.83;5.23;;;;;;;12.17;56.28;99835.63;5034955;28;20259;-66
2023/12/27 03:20:19;;;;;;;5.50;4.83;;;;;;;12.17;56.95;99835.63;5034706;28;20764;-66
2023/12/27 03:22:46;;;;;;;5.80;5.20;;;;;;;12.13;57.11;99845.00;5034863;28;20255;-66
2023/12/27 03:25:12;;;;;;;6.93;3.97;;;;;;;12.08;57.10;99839.47;5034873;28;20200;-66
2023/12/27 03:27:39;;;;;;;8.63;4.10;;;;;;;11.96;57.56;99830.38;5034788;28;20643;-65
2023/12/27 03:30:07;;;;;;;7.40;4.67;;;;;;;11.86;58.17;99829.94;5033847;28;20229;-66
2023/12/27 03:32:34;;;;;;;3.87;3.57;;;;;;;11.86;57.55;99829.09;5033610;28;20224;-66
2023/12/27 03:35:02;;;;;;;3.57;3.20;;;;;;;11.58;59.31;99826.44;5033304;28;20196;-66
2023/12/27 03:37:29;;;;;;;5.63;2.83;;;;;;;11.60;59.56;99827.09;5033043;28;20251;-65
2023/12/27 03:39:55;;;;;;;3.07;2.57;;;;;;;11.65;59.50;99824.69;5033740;28;20197;-64
2023/12/27 03:42:22;;;;;;;3.23;2.87;;;;;;;11.61;60.14;99828.75;5033084;28;20744;-65
2023/12/27 03:44:52;;;;;;;3.80;2.67;;;;;;;11.64;60.81;99824.88;5033407;28;20192;-65
2023/12/27 03:47:19;;;;;;;5.37;3.50;;;;;;;11.73;61.40;99831.69;5033487;28;20199;-65
2023/12/27 03:49:46;;;;;;;4.87;3.00;;;;;;;11.89;61.20;99829.56;5032937;28;20199;-65
2023/12/27 03:52:14;;;;;;;7.07;3.17;;;;;;;11.92;61.39;99818.50;5032450;28;20205;-65
2023/12/27 03:54:41;;;;;;;5.33;3.10;;;;;;;12.07;61.46;99824.50;5033192;28;20203;-65
2023/12/27 03:57:08;;;;;;;4.03;3.63;;;;;;;12.07;61.61;99821.84;5032793;28;20197;-66
2023/12/27 03:59:37;;;;;;;4.37;3.17;;;;;;;12.17;61.04;99827.63;5033114;28;20261;-64
2023/12/27 04:02:04;;;;;;;3.37;3.07;;;;;;;12.18;61.27;99823.97;5032916;28;20230;-64
2023/12/27 04:04:31;;;;;;;3.37;3.07;;;;;;;12.18;60.93;99823.97;5032782;28;20200;-64
2023/12/27 04:06:58;;;;;;;4.07;3.77;;;;;;;12.19;60.91;99830.94;5032964;28;20203;-65
2023/12/27 04:09:26;;;;;;;5.20;2.80;;;;;;;12.31;60.48;99828.50;5033016;28;20195;-65
2023/12/27 04:11:53;;;;;;;3.00;2.70;;;;;;;12.40;60.24;99822.81;5032871;28;20197;-64
2023/12/27 04:14:19;;;;;;;3.57;2.73;;;;;;;12.50;59.78;99830.44;5032834;28;20648;-65
2023/12/27 04:16:46;;;;;;;3.23;2.93;;;;;;;12.49;59.76;99842.94;5033091;28;20192;-64
2023/12/27 04:19:13;;;;;;;5.57;2.80;;;;;;;12.51;60.11;99850.72;5032627;28;20258;-65
2023/12/27 04:21:41;;;;;;;2.83;2.63;;;;;;;12.48;59.52;99857.28;5032790;28;20274;-64
2023/12/27 04:24:09;;;;;;;5.30;3.40;;;;;;;12.50;59.62;99855.22;5032632;28;20200;-64
2023/12/27 04:26:38;;;;;;;3.37;3.17;;;;;;;12.42;59.60;99862.59;5032420;28;20661;-64
2023/12/27 04:29:07;;;;;;;7.40;3.30;;;;;;;12.39;59.76;99866.47;4993953;28;1118527;-65
2023/12/27 04:31:33;;;;;;;3.67;3.17;;;;;;;12.56;59.33;99877.59;5033708;28;20246;-64
2023/12/27 04:34:00;;;;;;;3.70;2.73;;;;;;;12.58;59.25;99891.56;5033244;28;20780;-64
2023/12/27 04:36:27;;;;;;;2.60;2.40;;;;;;;12.58;58.84;99886.22;5031155;28;20193;-65
2023/12/27 04:38:53;;;;;;;4.77;3.50;;;;;;;12.57;59.13;99888.06;5013340;28;20198;-65
2023/12/27 04:41:20;;;;;;;4.43;2.93;;;;;;;12.56;59.00;99891.75;5013457;28;20198;-65
2023/12/27 04:43:48;;;;;;;5.23;3.77;;;;;;;12.39;59.56;99892.28;5013489;28;20661;-64
2023/12/27 04:46:15;;;;;;;3.30;3.00;;;;;;;12.42;60.32;99898.03;5013291;28;20257;-65
2023/12/27 04:48:42;;;;;;;3.50;3.20;;;;;;;12.47;59.86;99903.59;5013522;28;20264;-66
2023/12/27 04:51:08;;;;;;;5.50;2.90;;;;;;;12.58;59.79;99911.00;5013531;28;20259;-66
2023/12/27 04:53:35;;;;;;;3.90;2.93;;;;;;;12.53;59.91;99908.13;5012138;28;20224;-66
2023/12/27 04:56:02;;;;;;;7.43;4.17;;;;;;;12.52;60.13;99911.81;5013497;28;20190;-66
2023/12/27 04:58:29;;;;;;;3.97;2.70;;;;;;;12.50;59.80;99918.38;5013275;28;20197;-65
2023/12/27 05:00:57;;;;;;;4.40;3.07;;;;;;;12.42;60.31;99914.00;5012892;28;20194;-66
2023/12/27 05:03:24;;;;;;;4.43;2.90;;;;;;;12.35;60.47;99918.50;5012413;28;20194;-64
2023/12/27 05:05:50;;;;;;;6.03;3.27;;;;;;;12.30;60.60;99923.59;5012984;28;20673;-64
2023/12/27 05:08:17;;;;;;;6.33;3.53;;;;;;;12.28;60.42;99928.28;5013127;28;20194;-65
2023/12/27 05:10:44;;;;;;;3.37;3.00;;;;;;;12.23;61.08;99933.38;5013221;28;20197;-65
2023/12/27 05:13:10;;;;;;;3.00;2.80;;;;;;;12.24;61.12;99935.03;5012653;28;20284;-65
2023/12/27 05:15:37;;;;;;;6.60;3.10;;;;;;;12.16;61.23;99937.84;5012749;28;20621;-65
2023/12/27 05:18:05;;;;;;;3.93;3.00;;;;;;;12.13;61.38;99932.09;5012688;28;20646;-64
2023/12/27 05:20:32;;;;;;;3.47;3.17;;;;;;;12.01;61.32;99923.81;5012994;28;20233;-64
2023/12/27 05:22:59;;;;;;;4.97;3.10;;;;;;;12.02;61.99;99944.09;5012568;28;20661;-65
2023/12/27 05:25:24;;;;;;;4.27;3.23;;;;;;;11.89;62.41;99936.03;5012898;28;20200;-65
2023/12/27 05:27:51;;;;;;;6.23;3.43;;;;;;;11.75;62.95;99931.59;5012462;28;20205;-67
2023/12/27 05:30:18;;;;;;;6.20;4.40;;;;;;;11.69;63.19;99937.72;5012541;28;20192;-65
2023/12/27 05:32:45;;;;;;;8.70;4.03;;;;;;;11.74;63.36;99956.56;5012365;28;20259;-66
2023/12/27 05:35:13;;;;;;;5.03;3.60;;;;;;;11.77;63.22;99966.00;5012466;28;20200;-66
2023/12/27 05:37:40;;;;;;;6.07;3.37;;;;;;;11.72;63.52;99966.56;5022330;28;20207;-66
2023/12/27 05:40:08;;;;;;;5.37;3.17;;;;;;;11.68;63.83;99959.19;5023357;28;20257;-65
2023/12/27 05:42:35;;;;;;;4.07;3.50;;;;;;;11.59;64.57;99963.75;5022066;28;20241;-65
2023/12/27 05:45:01;;;;;;;6.87;4.40;;;;;;;11.66;64.65;99962.03;5022806;28;20204;-65
2023/12/27 05:47:28;;;;;;;3.93;3.53;;;;;;;11.68;64.77;99969.81;5022986;28;20257;-65
2023/12/27 05:49:55;;;;;;;5.27;3.57;;;;;;;11.72;64.68;99971.91;5021900;28;20211;-65
2023/12/27 05:52:23;;;;;;;6.30;3.30;;;;;;;11.69;65.02;99964.31;5020758;28;20197;-65
2023/12/27 05:54:50;;;;;;;10.40;3.37;;;;;;;11.75;64.81;99965.38;5020773;28;20694;-65
2023/12/27 05:57:17;;;;;;;8.07;3.57;;;;;;;11.78;64.47;99965.81;5021712;28;20257;-65
2023/12/27 05:59:44;;;;;;;4.00;3.60;;;;;;;11.81;64.43;99970.78;5022721;28;20207;-65
2023/12/27 06:02:11;;;;;;;7.40;3.70;;;;;;;11.76;64.63;99978.47;5021180;28;20217;-64
2023/12/27 06:04:37;;;;;;;7.33;3.53;;;;;;;11.72;64.42;99971.91;5021224;28;20692;-65
2023/12/27 06:07:04;;;;;;;4.40;3.20;;;;;;;11.73;64.41;99978.88;5020466;28;20200;-66
2023/12/27 06:09:32;;;;;;;5.03;3.50;;;;;;;11.64;64.60;99980.00;5019681;28;20267;-66
2023/12/27 06:11:59;;;;;;;4.47;3.73;;;;;;;11.62;64.54;99981.22;5021774;28;20208;-66
2023/12/27 06:14:26;;;;;;;5.53;4.03;;;;;;;11.65;64.69;99981.69;5020347;28;20274;-68
2023/12/27 06:16:52;;;;;;;6.70;3.70;;;;;;;11.64;64.62;99980.00;5022601;28;20196;-67
2023/12/27 06:19:19;;;;;;;4.87;3.20;;;;;;;11.78;64.09;99994.25;5021302;28;20690;-67
2023/12/27 06:21:46;;;;;;;3.97;3.53;;;;;;;11.89;63.81;99991.94;5020506;28;20205;-67
2023/12/27 06:24:12;;;;;;;7.40;3.80;;;;;;;11.90;64.07;99995.41;5022123;28;20208;-67
2023/12/27 06:26:41;;;;;;;8.30;5.63;;;;;;;11.96;63.72;99998.09;5021594;28;20197;-67
2023/12/27 06:29:08;;;;;;;11.13;5.00;;;;;;;12.09;63.11;100003.53;5019752;28;20340;-67
2023/12/27 06:31:35;;;;;;;14.87;6.27;;;;;;;12.37;62.76;100004.34;5021735;28;20760;-67
2023/12/27 06:34:02;;;;;;;15.63;7.87;;;;;;;12.60;61.82;100010.25;5021436;28;20216;-67
2023/12/27 06:36:28;;;;;;;15.43;8.00;;;;;;;12.65;61.69;100013.16;5021771;28;20190;-67
2023/12/27 06:38:55;;;;;;;6.90;5.87;;;;;;;12.82;60.50;100013.66;5020330;28;20644;-66
2023/12/27 06:41:22;;;;;;;10.53;5.27;;;;;;;13.10;60.54;100012.56;5020409;28;20193;-67
2023/12/27 06:43:50;;;;;;;7.53;3.80;;;;;;;13.32;58.41;100030.09;5022109;28;20289;-68
2023/12/27 06:46:16;;;;;;;6.33;4.57;;;;;;;13.54;57.79;100031.59;5021071;28;20593;-66
2023/12/27 06:48:43;;;;;;;7.37;6.67;;;;;;;13.77;57.53;100032.03;5020170;28;20244;-66
2023/12/27 06:51:13;;;;;;;6.40;3.87;;;;;;;14.02;55.69;100045.66;5022083;28;20247;-67
2023/12/27 06:53:40;;;;;;;7.00;3.93;;;;;;;14.06;55.37;100047.72;5021254;28;20638;-67
2023/12/27 06:56:07;;;;;;;3.20;3.00;;;;;;;14.10;54.67;100046.25;5020100;28;20206;-66
2023/12/27 06:58:34;;;;;;;3.43;3.13;;;;;;;14.32;54.08;100053.09;5021351;28;20194;-66
2023/12/27 07:01:02;;;;;;;3.40;3.10;;;;;;;14.40;53.62;100065.41;5021298;28;20194;-66
2023/12/27 07:03:29;;;;;;;3.07;2.87;;;;;;;14.37;53.22;100061.28;5019718;28;20700;-66
2023/12/27 07:05:55;;;;;;;5.23;3.50;;;;;;;14.33;53.09;100068.09;5019487;28;20195;-66
2023/12/27 07:08:22;;;;;;;4.53;3.27;;;;;;;14.45;53.13;100074.44;5020527;28;20197;-66
2023/12/27 07:10:49;;;;;;;4.73;4.33;;;;;;;14.80;52.96;100078.53;5021571;28;20557;-67
2023/12/27 07:13:15;;;;;;;7.93;4.97;;;;;;;15.04;51.61;100093.88;5020486;28;20186;-67
2023/12/27 07:15:42;;;;;;;4.73;4.13;;;;;;;15.40;50.95;100106.81;5020470;28;20260;-66
2023/12/27 07:18:10;;;;;;;8.00;3.20;;;;;;;15.81;49.45;100117.94;5020369;28;20193;-66
2023/12/27 07:20:37;;;;;;;7.43;3.70;;;;;;;16.19;47.63;100117.88;5020473;28;20614;-66
2023/12/27 07:23:04;;;;;;;6.07;3.23;;;;;;;16.50;47.73;100125.94;5020038;28;20247;-67
2023/12/27 07:25:31;;;;;;;5.63;3.90;;;;;;;16.78;46.71;100126.34;5018136;28;20205;-70
2023/12/27 07:27:57;;;;;;;8.03;3.73;;;;;;;16.90;46.02;100127.25;5014867;28;20217;-62
2023/12/27 07:30:24;;;;;;;15.77;4.63;;;;;;;16.80;45.68;100133.13;5014782;28;20665;-63
2023/12/27 07:32:51;;;;;;;18.47;4.27;;;;;;;16.99;45.26;100142.81;5015074;28;20193;-60
2023/12/27 07:35:20;;;;;;;8.90;4.00;;;;;;;17.29;44.93;100138.41;5014943;28;20317;-59
2023/12/27 07:37:46;;;;;;;4.20;3.70;;;;;;;17.50;44.96;100129.09;5028214;28;20258;-60
2023/12/27 07:40:14;;;;;;;6.23;4.43;;;;;;;17.28;44.83;100122.50;5034309;28;20231;-60
2023/12/27 07:42:41;;;;;;;17.87;5.80;;;;;;;17.21;44.80;100125.25;5032280;28;20636;-61
2023/12/27 07:45:08;;;;;;;10.23;3.80;;;;;;;17.02;45.17;100120.13;5026814;28;20193;-61
2023/12/27 07:47:35;;;;;;;6.43;3.50;;;;;;;16.92;45.76;100125.16;5026351;28;20200;-61
2023/12/27 07:50:02;;;;;;;9.80;3.93;;;;;;;16.50;46.47;100118.69;5027752;28;20670;-62
2023/12/27 07:52:30;;;;;;;3.63;3.30;;;;;;;16.76;46.57;100125.72;5025706;28;20193;-61
2023/12/27 07:54:58;;;;;;;6.43;3.33;;;;;;;16.92;46.96;100130.53;5014360;28;20237;-60
2023/12/27 07:57:24;;;;;;;9.17;3.03;;;;;;;17.06;45.12;100145.47;5014186;28;20248;-61
2023/12/27 07:59:55;;;;;;;5.73;3.70;;;;;;;17.05;45.35;100147.31;5025840;28;20197;-61
2023/12/27 08:02:22;;;;;;;6.03;3.83;;;;;;;17.18;46.01;100140.97;5034411;28;20185;-62
2023/12/27 08:04:49;;;;;;;8.30;4.40;;;;;;;17.69;45.70;100138.78;5017207;28;20252;-61
2023/12/27 08:07:16;;;;;;;5.37;3.50;;;;;;;18.10;46.52;100144.22;5015421;28;20271;-61
2023/12/27 08:09:44;;;;;;;5.40;3.60;;;;;;;18.55;48.23;100145.41;5025479;28;20197;-62
2023/12/27 08:12:11;;;;;;;7.00;3.33;;;;;;;19.03;49.12;100154.94;5015678;28;20295;-62
2023/12/27 08:14:37;;;;;;;5.07;2.90;;;;;;;19.10;48.27;100160.19;5025831;28;20215;-62
2023/12/27 08:17:05;;;;;;;10.07;3.70;;;;;;;19.66;42.14;100176.56;5033264;28;20197;-62
2023/12/27 08:19:31;;;;;;;7.13;3.80;;;;;;;20.05;40.74;100175.75;5025497;28;20206;-62
2023/12/27 08:21:58;;;;;;;3.87;2.63;;;;;;;20.02;42.14;100181.63;5031650;28;20546;-62
2023/12/27 08:24:25;;;;;;;5.73;2.73;;;;;;;19.59;39.87;100179.41;5033690;28;20206;-62
2023/12/27 08:26:53;;;;;;;3.00;2.50;;;;;;;19.50;43.56;100177.28;5033228;28;20196;-61
2023/12/27 08:29:20;;;;;;;6.23;3.03;;;;;;;19.03;41.22;100189.94;5033264;28;20750;-59
2023/12/27 08:31:47;;;;;;;10.33;3.07;;;;;;;19.08;41.03;100194.63;5019844;28;20200;-60
2023/12/27 08:34:14;;;;;;;3.80;2.73;;;;;;;19.13;43.49;100186.66;5013647;28;20433;-60
2023/12/27 08:36:45;;;;;;;9.43;2.83;;;;;;;19.08;42.98;100191.94;5015863;28;20243;-61
2023/12/27 08:39:11;;;;;;;7.13;3.87;;;;;;;19.07;43.08;100199.19;5013701;28;20189;-62
2023/12/27 08:41:38;;;;;;;9.40;3.93;;;;;;;19.26;40.48;100197.22;5012175;28;20631;-62
2023/12/27 08:44:06;;;;;;;3.63;3.17;;;;;;;19.38;42.35;100200.75;5029642;28;20209;-60
2023/12/27 08:46:33;;;;;;;6.00;2.83;;;;;;;19.46;40.68;100205.78;5033455;28;20199;-61
2023/12/27 08:49:00;;;;;;;6.90;3.20;;;;;;;19.60;43.18;100199.09;5014140;28;20201;-62
2023/12/27 08:51:26;;;;;;;5.47;3.17;;;;;;;19.47;40.67;100202.00;5026754;28;20675;-59
2023/12/27 08:53:53;;;;;;;6.77;3.03;;;;;;;19.93;41.44;100200.03;5033069;28;20200;-60
2023/12/27 08:56:20;;;;;;;5.80;3.53;;;;;;;19.86;39.28;100203.94;5032679;28;20240;-60
2023/12/27 08:58:46;;;;;;;8.40;3.07;;;;;;;19.86;40.04;100193.97;5033047;28;20646;-60
2023/12/27 09:01:16;;;;;;;5.40;2.80;;;;;;;19.85;39.73;100181.53;5032911;28;20266;-60
2023/12/27 09:03:42;;;;;;;5.60;3.03;;;;;;;19.78;40.07;100180.06;5032957;28;20208;-60
2023/12/27 09:06:09;;;;;;;22.37;4.50;;;;;;;19.48;40.49;100179.44;5032881;28;20246;-60
2023/12/27 09:08:36;;;;;;;8.37;3.57;;;;;;;19.53;40.92;100177.63;5032506;28;20256;-59
2023/12/27 09:11:04;;;;;;;5.83;3.33;;;;;;;19.74;41.80;100178.88;5032700;28;20205;-60
2023/12/27 09:13:31;;;;;;;5.67;3.87;;;;;;;19.82;40.59;100175.81;5032347;28;20616;-61
2023/12/27 09:15:58;;;;;;;5.73;3.50;;;;;;;20.03;39.68;100173.28;5032222;28;20712;-60
2023/12/27 09:18:26;;;;;;;3.37;2.87;;;;;;;19.89;39.93;100173.81;5050372;28;20692;-60
2023/12/27 09:20:54;;;;;;;3.57;2.77;;;;;;;19.37;40.67;100177.56;5051468;28;20196;-59
2023/12/27 09:23:20;;;;;;;7.50;3.07;;;;;;;19.15;41.54;100171.91;5052064;28;20193;-59
2023/12/27 09:25:47;;;;;;;8.87;3.73;;;;;;;19.30;41.55;100182.22;5051504;28;20209;-60
2023/12/27 09:28:14;;;;;;;8.30;3.00;;;;;;;19.04;41.92;100180.00;5051771;28;20223;-60
2023/12/27 09:30:40;;;;;;;6.33;3.10;;;;;;;18.75;42.89;100162.88;5051973;28;20195;-58
2023/12/27 09:33:08;;;;;;;6.83;2.90;;;;;;;19.13;44.89;100154.34;5051749;28;20198;-58
2023/12/27 09:35:36;;;;;;;5.83;3.00;;;;;;;19.25;43.54;100147.94;5051841;28;20238;-58
2023/12/27 09:38:04;;;;;;;8.40;2.40;;;;;;;19.29;42.16;100169.84;5036411;28;20203;-58
2023/12/27 09:40:31;;;;;;;4.30;2.90;;;;;;;19.26;41.37;100170.28;5032379;28;20262;-59
2023/12/27 09:42:59;;;;;;;16.07;3.30;;;;;;;18.94;42.24;100155.50;5032275;28;20204;-59
2023/12/27 09:45:30;;;;;;;5.60;2.60;;;;;;;19.10;41.78;100154.81;5032240;28;20201;-58
2023/12/27 09:47:59;;;;;;;9.33;2.83;;;;;;;19.07;42.19;100149.91;5029737;28;20197;-58
2023/12/27 09:50:26;;;;;;;6.30;2.90;;;;;;;19.12;41.88;100148.13;5032196;28;20204;-58
2023/12/27 09:52:56;;;;;;;5.93;3.03;;;;;;;18.70;42.34;100151.19;5032023;28;20327;-59
2023/12/27 09:55:23;;;;;;;7.40;3.57;;;;;;;18.89;42.49;100137.38;5031717;28;20687;-60
2023/12/27 09:57:51;;;;;;;7.37;3.23;;;;;;;18.97;42.64;100138.91;5031568;28;20206;-58
2023/12/27 10:00:21;;;;;;;13.23;3.40;;;;;;;19.02;42.48;100136.31;5031690;28;20198;-58
2023/12/27 10:02:54;;;;;;;5.13;3.30;;;;;;;18.87;43.03;100123.31;5025246;28;20193;-60
2023/12/27 10:05:23;;;;;;;29.17;3.97;;;;;;;18.89;42.43;100125.78;5029434;28;20217;-60
2023/12/27 10:07:51;;;;;;;5.03;2.43;;;;;;;18.95;42.95;100136.44;5030231;28;20663;-59
2023/12/27 10:10:19;;;;;;;8.23;2.70;;;;;;;19.13;42.63;100138.19;5031540;28;20204;-60
2023/12/27 10:12:47;;;;;;;5.07;2.80;;;;;;;19.07;41.87;100128.38;5031646;28;20197;-60
2023/12/27 10:15:14;;;;;;;3.47;2.90;;;;;;;18.97;42.01;100122.72;5031819;28;20227;-59
2023/12/27 10:17:40;;;;;;;5.63;3.00;;;;;;;18.99;42.55;100115.25;5031636;28;20764;-59
2023/12/27 10:20:08;;;;;;;4.13;2.90;;;;;;;19.06;42.62;100105.16;5031689;28;20212;-58
2023/12/27 10:22:35;;;;;;;4.57;2.57;;;;;;;19.14;42.96;100104.81;5031199;28;20199;-58
2023/12/27 10:25:02;;;;;;;4.70;2.90;;;;;;;18.97;42.56;100115.50;5031141;28;20199;-58
2023/12/27 10:27:31;;;;;;;3.33;3.03;;;;;;;19.07;42.74;100104.13;5030919;28;20204;-58
2023/12/27 10:29:59;;;;;;;3.50;2.87;;;;;;;19.16;42.33;100089.25;5031418;28;20232;-58
2023/12/27 10:32:27;;;;;;;3.27;2.93;;;;;;;19.09;42.56;100073.22;5031180;28;20231;-58
2023/12/27 10:34:54;;;;;;;5.20;2.40;;;;;;;19.27;41.99;100080.31;5031564;28;20227;-58
2023/12/27 10:37:21;;;;;;;4.03;3.10;;;;;;;19.34;42.08;100075.63;5021744;28;20260;-58
2023/12/27 10:39:48;;;;;;;4.07;2.73;;;;;;;19.35;41.97;100077.25;5011724;28;20620;-58
2023/12/27 10:42:16;;;;;;;3.50;2.67;;;;;;;19.23;41.52;100073.75;5011614;28;20259;-59
2023/12/27 10:44:45;;;;;;;4.93;2.63;;;;;;;19.45;39.87;100083.69;5011984;28;20229;-59
2023/12/27 10:47:17;;;;;;;2.73;2.43;;;;;;;19.56;38.17;100084.72;5012590;28;20190;-58
2023/12/27 10:49:47;;;;;;;4.13;3.67;;;;;;;19.17;38.55;100074.72;5031349;28;20196;-59
2023/12/27 10:52:16;;;;;;;4.00;2.70;;;;;;;19.10;39.12;100072.16;5031297;28;20188;-59
2023/12/27 10:54:45;;;;;;;3.00;2.60;;;;;;;19.32;38.08;100081.25;5031346;28;20312;-59
2023/12/27 10:57:18;;;;;;;4.93;2.53;;;;;;;19.38;39.11;100072.25;5030800;28;20197;-57
2023/12/27 10:59:48;;;;;;;2.70;2.50;;;;;;;19.62;38.62;100068.41;5031329;28;20189;-59
2023/12/27 11:02:15;;;;;;;2.53;2.33;;;;;;;19.60;38.42;100073.22;5033820;28;20197;-64
2023/12/27 11:04:46;;;;;;;4.90;2.77;;;;;;;19.47;38.81;100059.19;5035251;28;20198;-68
2023/12/27 11:07:13;;;;;;;4.10;3.40;;;;;;;19.45;38.55;100067.50;5035301;28;20206;-67
2023/12/27 11:09:42;;;;;;;9.17;2.70;;;;;;;19.25;39.19;100052.81;5034738;28;20629;-68
2023/12/27 11:12:11;;;;;;;3.00;2.80;;;;;;;19.41;39.07;100060.16;5034714;28;20672;-67
2023/12/27 11:14:38;;;;;;;4.87;3.10;;;;;;;19.63;39.56;100071.91;5034945;28;20209;-67
2023/12/27 11:17:07;;;;;;;4.50;2.47;;;;;;;19.33;38.75;100074.00;5034548;28;20234;-68
2023/12/27 11:19:35;;;;;;;3.50;2.80;;;;;;;19.18;39.22;100073.66;5034952;28;20280;-66
2023/12/27 11:22:01;;;;;;;3.13;2.57;;;;;;;19.30;39.15;100069.91;5034962;28;20201;-67
2023/12/27 11:24:28;;;;;;;4.00;2.87;;;;;;;19.55;38.73;100061.50;5034743;28;20266;-66
2023/12/27 11:27:02;;;;;;;7.37;2.60;;;;;;;19.39;38.70;100062.25;5034735;28;20197;-66
2023/12/27 11:29:29;;;;;;;6.73;2.73;;;;;;;19.16;38.95;100062.31;5034998;28;20297;-65